createdAt,value
2022-10-13T00:00:52.234Z,59.78
2022-10-13T00:01:52.221Z,61.55
2022-10-13T00:02:52.179Z,58.17
2022-10-13T00:03:52.142Z,56.88
2022-10-13T00:04:52.147Z,61.87
2022-10-13T00:05:52.121Z,62.52
2022-10-13T00:06:52.147Z,61.55
2022-10-13T00:07:52.063Z,62.52
2022-10-13T00:08:52.074Z,59.30
2022-10-13T00:09:52.047Z,59.78
2022-10-13T00:10:52.036Z,60.42
2022-10-13T00:11:52.069Z,61.71
2022-10-13T00:12:52.009Z,62.36
2022-10-13T00:13:51.978Z,62.52
2022-10-13T00:14:51.971Z,61.55
2022-10-13T00:15:51.932Z,60.75
2022-10-13T00:16:51.970Z,60.75
2022-10-13T00:17:51.901Z,61.39
2022-10-13T00:18:51.896Z,58.01
2022-10-13T00:19:51.900Z,59.94
2022-10-13T00:20:51.873Z,62.20
2022-10-13T00:21:51.894Z,59.62
2022-10-13T00:22:51.828Z,61.39
2022-10-13T00:23:52.056Z,59.30
2022-10-13T00:24:52.821Z,61.71
2022-10-13T00:25:51.791Z,59.62
2022-10-13T00:26:51.788Z,57.20
2022-10-13T00:27:51.778Z,59.78
2022-10-13T00:28:53.114Z,58.81
2022-10-13T00:29:52.709Z,59.46
2022-10-13T00:30:51.688Z,62.68
2022-10-13T00:31:51.721Z,58.97
2022-10-13T00:32:51.663Z,59.30
2022-10-13T00:33:51.639Z,61.87
2022-10-13T00:34:51.634Z,60.10
2022-10-13T00:35:51.612Z,60.75
2022-10-13T00:36:51.615Z,61.07
2022-10-13T00:37:51.565Z,60.26
2022-10-13T00:38:51.576Z,58.17
2022-10-13T00:39:51.535Z,58.49
2022-10-13T00:40:51.542Z,60.42
2022-10-13T00:41:51.545Z,60.26
2022-10-13T00:42:51.513Z,61.71
2022-10-13T00:43:51.583Z,60.26
2022-10-13T00:44:51.495Z,61.55
2022-10-13T00:45:51.524Z,59.94
2022-10-13T00:46:51.473Z,59.14
2022-10-13T00:47:51.441Z,59.94
2022-10-13T00:48:51.390Z,61.71
2022-10-13T00:49:51.380Z,60.26
2022-10-13T00:50:51.351Z,61.55
2022-10-13T00:51:51.360Z,60.42
2022-10-13T00:52:52.328Z,60.91
2022-10-13T00:53:51.314Z,60.91
2022-10-13T00:54:52.294Z,58.97
2022-10-13T00:55:51.276Z,59.46
2022-10-13T00:56:51.309Z,61.23
2022-10-13T00:57:51.240Z,58.33
2022-10-13T00:58:51.215Z,58.65
2022-10-13T00:59:51.247Z,59.46
2022-10-13T01:00:51.247Z,58.81
2022-10-13T01:01:51.228Z,60.42
2022-10-13T01:02:51.160Z,61.55
2022-10-13T01:03:51.144Z,61.07
2022-10-13T01:04:51.125Z,59.94
2022-10-13T01:05:51.105Z,60.75
2022-10-13T01:06:51.145Z,60.75
2022-10-13T01:07:51.105Z,61.07
2022-10-13T01:08:51.065Z,61.39
2022-10-13T01:09:51.049Z,59.94
2022-10-13T01:10:51.038Z,61.71
2022-10-13T01:11:51.054Z,60.91
2022-10-13T01:12:50.988Z,60.91
2022-10-13T01:13:50.982Z,62.04
2022-10-13T01:14:50.977Z,62.04
2022-10-13T01:15:50.965Z,62.20
2022-10-13T01:16:50.955Z,61.71
2022-10-13T01:17:50.921Z,63.49
2022-10-13T01:18:50.899Z,61.71
2022-10-13T01:19:50.902Z,62.68
2022-10-13T01:20:50.863Z,60.42
2022-10-13T01:21:50.883Z,61.39
2022-10-13T01:22:50.853Z,62.36
2022-10-13T01:23:50.804Z,62.04
2022-10-13T01:24:50.805Z,61.87
2022-10-13T01:25:50.769Z,63.49
2022-10-13T01:26:50.786Z,63.97
2022-10-13T01:27:50.744Z,60.10
2022-10-13T01:28:50.756Z,61.87
2022-10-13T01:29:50.702Z,60.91
2022-10-13T01:30:50.715Z,60.26
2022-10-13T01:31:50.714Z,64.45
2022-10-13T01:32:50.659Z,60.42
2022-10-13T01:33:50.636Z,61.23
2022-10-13T01:34:50.632Z,60.42
2022-10-13T01:35:50.603Z,61.71
2022-10-13T01:36:50.632Z,59.94
2022-10-13T01:37:50.562Z,61.39
2022-10-13T01:38:50.570Z,63.00
2022-10-13T01:39:50.532Z,58.33
2022-10-13T01:40:50.559Z,60.42
2022-10-13T01:41:50.538Z,61.39
2022-10-13T01:42:50.488Z,58.17
2022-10-13T01:43:50.464Z,58.33
2022-10-13T01:44:50.448Z,63.00
2022-10-13T01:45:50.431Z,62.68
2022-10-13T01:46:50.454Z,62.36
2022-10-13T01:47:50.404Z,61.55
2022-10-13T01:48:50.370Z,60.75
2022-10-13T01:49:50.364Z,63.97
2022-10-13T01:50:50.344Z,61.87
2022-10-13T01:51:50.374Z,60.42
2022-10-13T01:52:50.353Z,61.39
2022-10-13T01:53:50.288Z,62.84
2022-10-13T01:54:50.272Z,60.75
2022-10-13T01:55:50.262Z,61.71
2022-10-13T01:56:50.270Z,61.39
2022-10-13T01:57:50.232Z,63.49
2022-10-13T01:58:50.223Z,62.68
2022-10-13T01:59:50.177Z,59.46
2022-10-13T02:00:50.208Z,61.87
2022-10-13T02:01:50.187Z,63.97
2022-10-13T02:02:50.150Z,61.87
2022-10-13T02:03:50.120Z,62.68
2022-10-13T02:04:50.189Z,61.23
2022-10-13T02:05:50.088Z,59.78
2022-10-13T02:06:50.113Z,63.49
2022-10-13T02:07:50.065Z,62.20
2022-10-13T02:08:50.058Z,62.84
2022-10-13T02:09:50.017Z,59.62
2022-10-13T02:10:50.011Z,60.10
2022-10-13T02:11:50.050Z,63.97
2022-10-13T02:12:49.976Z,61.55
2022-10-13T02:13:49.966Z,62.84
2022-10-13T02:14:49.956Z,61.87
2022-10-13T02:15:49.936Z,64.13
2022-10-13T02:16:49.937Z,62.04
2022-10-13T02:17:49.899Z,61.39
2022-10-13T02:18:49.878Z,62.84
2022-10-13T02:19:49.874Z,62.20
2022-10-13T02:20:49.830Z,61.39
2022-10-13T02:21:49.864Z,62.52
2022-10-13T02:22:49.812Z,63.65
2022-10-13T02:23:49.781Z,62.52
2022-10-13T02:24:49.764Z,62.84
2022-10-13T02:25:49.758Z,62.36
2022-10-13T02:26:49.801Z,63.81
2022-10-13T02:27:49.720Z,62.36
2022-10-13T02:28:49.752Z,61.87
2022-10-13T02:29:49.691Z,63.65
2022-10-13T02:30:49.672Z,64.61
2022-10-13T02:31:49.688Z,64.61
2022-10-13T02:32:49.639Z,64.45
2022-10-13T02:33:49.632Z,63.33
2022-10-13T02:34:49.607Z,64.78
2022-10-13T02:35:49.577Z,63.49
2022-10-13T02:36:49.611Z,63.16
2022-10-13T02:37:49.543Z,62.20
2022-10-13T02:38:49.554Z,62.68
2022-10-13T02:39:49.511Z,61.07
2022-10-13T02:40:49.489Z,62.36
2022-10-13T02:41:49.507Z,62.36
2022-10-13T02:42:49.507Z,63.16
2022-10-13T02:43:49.459Z,62.20
2022-10-13T02:44:49.426Z,60.42
2022-10-13T02:45:49.420Z,60.26
2022-10-13T02:46:49.427Z,64.61
2022-10-13T02:47:49.385Z,63.33
2022-10-13T02:48:50.357Z,62.68
2022-10-13T02:49:49.360Z,62.52
2022-10-13T02:50:49.322Z,61.71
2022-10-13T02:51:49.336Z,61.39
2022-10-13T02:52:49.288Z,62.20
2022-10-13T02:53:49.273Z,59.94
2022-10-13T02:54:49.256Z,64.78
2022-10-13T02:55:49.273Z,63.65
2022-10-13T02:56:49.261Z,62.04
2022-10-13T02:57:49.290Z,63.00
2022-10-13T02:58:49.214Z,63.00
2022-10-13T02:59:49.164Z,64.94
2022-10-13T03:00:49.187Z,64.29
2022-10-13T03:01:49.172Z,62.52
2022-10-13T03:02:49.124Z,63.00
2022-10-13T03:03:49.108Z,61.87
2022-10-13T03:04:49.090Z,62.04
2022-10-13T03:05:49.131Z,63.49
2022-10-13T03:06:49.090Z,61.71
2022-10-13T03:07:49.054Z,63.49
2022-10-13T03:08:49.030Z,64.29
2022-10-13T03:09:48.993Z,62.84
2022-10-13T03:10:48.992Z,63.97
2022-10-13T03:11:48.996Z,64.94
2022-10-13T03:12:48.983Z,62.84
2022-10-13T03:13:48.940Z,62.36
2022-10-13T03:14:48.915Z,61.39
2022-10-13T03:15:48.958Z,61.87
2022-10-13T03:16:49.026Z,62.68
2022-10-13T03:17:48.874Z,64.29
2022-10-13T03:18:48.864Z,62.84
2022-10-13T03:19:48.851Z,62.68
2022-10-13T03:20:48.847Z,63.81
2022-10-13T03:21:48.824Z,63.49
2022-10-13T03:22:49.876Z,63.00
2022-10-13T03:23:49.758Z,64.61
2022-10-13T03:24:48.754Z,64.94
2022-10-13T03:25:48.741Z,63.49
2022-10-13T03:26:48.749Z,65.42
2022-10-13T03:27:48.690Z,65.90
2022-10-13T03:28:48.738Z,66.39
2022-10-13T03:29:48.658Z,64.78
2022-10-13T03:30:48.654Z,64.13
2022-10-13T03:31:48.664Z,63.16
2022-10-13T03:32:48.624Z,63.97
2022-10-13T03:33:48.594Z,63.33
2022-10-13T03:34:48.583Z,64.78
2022-10-13T03:35:48.562Z,63.65
2022-10-13T03:36:48.637Z,64.13
2022-10-13T03:37:48.524Z,64.29
2022-10-13T03:38:48.526Z,64.13
2022-10-13T03:39:48.492Z,63.16
2022-10-13T03:40:48.516Z,65.26
2022-10-13T03:41:48.476Z,64.94
2022-10-13T03:42:48.435Z,63.33
2022-10-13T03:43:48.424Z,63.16
2022-10-13T03:44:52.348Z,63.81
2022-10-13T03:45:49.378Z,63.16
2022-10-13T03:46:48.415Z,61.71
2022-10-13T03:47:48.388Z,64.78
2022-10-13T03:48:48.334Z,63.97
2022-10-13T03:49:48.324Z,62.68
2022-10-13T03:50:48.303Z,65.10
2022-10-13T03:51:49.308Z,62.36
2022-10-13T03:52:48.302Z,64.94
2022-10-13T03:53:48.276Z,64.61
2022-10-13T03:54:48.231Z,65.74
2022-10-13T03:55:48.224Z,62.52
2022-10-13T03:56:48.244Z,64.61
2022-10-13T03:57:48.185Z,64.61
2022-10-13T03:58:48.181Z,63.00
2022-10-13T03:59:48.159Z,63.16
2022-10-13T04:00:48.149Z,63.81
2022-10-13T04:01:48.223Z,65.42
2022-10-13T04:02:48.106Z,65.74
2022-10-13T04:03:48.084Z,65.26
2022-10-13T04:04:48.071Z,64.13
2022-10-13T04:05:48.074Z,66.71
2022-10-13T04:06:48.052Z,63.16
2022-10-13T04:07:48.014Z,60.42
2022-10-13T04:08:48.013Z,67.03
2022-10-13T04:09:47.991Z,64.29
2022-10-13T04:10:47.973Z,63.33
2022-10-13T04:11:48.075Z,63.97
2022-10-13T04:12:47.945Z,64.61
2022-10-13T04:13:47.904Z,63.49
2022-10-13T04:14:47.892Z,61.39
2022-10-13T04:15:47.903Z,61.55
2022-10-13T04:16:47.948Z,64.78
2022-10-13T04:17:47.856Z,63.00
2022-10-13T04:18:47.827Z,63.97
2022-10-13T04:19:47.832Z,64.94
2022-10-13T04:20:47.821Z,63.00
2022-10-13T04:21:47.829Z,63.81
2022-10-13T04:22:47.796Z,65.74
2022-10-13T04:23:47.748Z,62.20
2022-10-13T04:24:47.753Z,64.78
2022-10-13T04:25:47.729Z,66.55
2022-10-13T04:26:47.738Z,64.45
2022-10-13T04:27:47.671Z,62.52
2022-10-13T04:28:47.715Z,64.29
2022-10-13T04:29:47.654Z,62.84
2022-10-13T04:30:49.619Z,61.39
2022-10-13T04:31:48.665Z,64.13
2022-10-13T04:32:47.617Z,64.61
2022-10-13T04:33:47.601Z,65.26
2022-10-13T04:34:47.585Z,64.61
2022-10-13T04:35:47.566Z,64.29
2022-10-13T04:36:47.587Z,64.61
2022-10-13T04:37:47.511Z,65.58
2022-10-13T04:38:47.539Z,64.61
2022-10-13T04:39:47.511Z,63.16
2022-10-13T04:40:47.465Z,65.74
2022-10-13T04:41:47.476Z,65.90
2022-10-13T04:42:47.441Z,65.58
2022-10-13T04:43:47.435Z,65.74
2022-10-13T04:44:47.402Z,65.10
2022-10-13T04:45:47.379Z,64.78
2022-10-13T04:46:47.398Z,64.13
2022-10-13T04:47:47.444Z,63.49
2022-10-13T04:48:47.322Z,65.74
2022-10-13T04:49:47.309Z,65.10
2022-10-13T04:50:47.288Z,65.26
2022-10-13T04:51:47.298Z,66.06
2022-10-13T04:52:47.252Z,67.35
2022-10-13T04:53:47.233Z,65.10
2022-10-13T04:54:47.218Z,65.42
2022-10-13T04:55:47.248Z,66.06
2022-10-13T04:56:47.217Z,65.90
2022-10-13T04:57:47.180Z,65.42
2022-10-13T04:58:47.195Z,65.58
2022-10-13T04:59:47.133Z,63.16
2022-10-13T05:00:47.168Z,63.16
2022-10-13T05:01:47.153Z,64.94
2022-10-13T05:02:47.089Z,66.23
2022-10-13T05:03:47.107Z,66.87
2022-10-13T05:04:47.052Z,65.90
2022-10-13T05:05:47.032Z,64.94
2022-10-13T05:07:16.083Z,65.58
2022-10-13T05:07:48.991Z,65.58
2022-10-13T05:08:46.992Z,63.97
2022-10-13T05:09:46.958Z,64.29
2022-10-13T05:10:46.944Z,65.10
2022-10-13T05:11:46.948Z,65.90
2022-10-13T05:12:46.911Z,63.97
2022-10-13T05:13:46.888Z,63.97
2022-10-13T05:14:46.871Z,64.61
2022-10-13T05:15:46.853Z,65.10
2022-10-13T05:16:46.892Z,63.97
2022-10-13T05:17:46.838Z,62.04
2022-10-13T05:18:47.804Z,66.71
2022-10-13T05:19:46.863Z,63.33
2022-10-13T05:20:46.860Z,62.84
2022-10-13T05:21:46.774Z,64.13
2022-10-13T05:22:46.749Z,65.74
2022-10-13T05:23:46.730Z,64.29
2022-10-13T05:24:46.709Z,64.78
2022-10-13T05:25:46.685Z,64.94
2022-10-13T05:26:46.695Z,63.65
2022-10-13T05:27:46.657Z,66.23
2022-10-13T05:28:46.695Z,66.55
2022-10-13T05:29:46.609Z,65.74
2022-10-13T05:30:46.592Z,67.35
2022-10-13T05:31:46.603Z,66.39
2022-10-13T05:32:50.267Z,66.55
2022-10-13T05:33:47.538Z,66.71
2022-10-13T05:34:46.547Z,66.71
2022-10-13T05:35:46.525Z,66.55
2022-10-13T05:36:46.559Z,67.51
2022-10-13T05:37:46.487Z,66.71
2022-10-13T05:38:46.479Z,66.39
2022-10-13T05:39:48.758Z,65.58
2022-10-13T05:40:47.426Z,66.23
2022-10-13T05:41:46.436Z,66.55
2022-10-13T05:42:46.419Z,66.71
2022-10-13T05:43:46.377Z,66.87
2022-10-13T05:44:46.379Z,65.74
2022-10-13T05:45:46.342Z,67.68
2022-10-13T05:46:46.387Z,65.10
2022-10-13T05:47:46.304Z,67.84
2022-10-13T05:48:46.290Z,66.06
2022-10-13T05:49:46.285Z,65.58
2022-10-13T05:50:46.270Z,67.35
2022-10-13T05:51:46.289Z,65.90
2022-10-13T05:52:46.215Z,64.78
2022-10-13T05:53:50.238Z,65.26
2022-10-13T05:54:47.197Z,66.23
2022-10-13T05:55:46.151Z,64.78
2022-10-13T05:56:46.190Z,67.19
2022-10-13T05:57:46.167Z,68.80
2022-10-13T05:58:46.109Z,65.90
2022-10-13T05:59:46.105Z,65.58
2022-10-13T06:00:46.083Z,65.26
2022-10-13T06:01:46.112Z,66.23
2022-10-13T06:02:46.081Z,65.74
2022-10-13T06:03:46.036Z,66.06
2022-10-13T06:04:46.007Z,65.58
2022-10-13T06:05:45.997Z,67.84
2022-10-13T06:06:45.975Z,68.16
2022-10-13T06:07:46.001Z,64.78
2022-10-13T06:08:45.943Z,66.55
2022-10-13T06:09:45.928Z,64.94
2022-10-13T06:10:45.923Z,66.23
2022-10-13T06:11:45.882Z,64.61
2022-10-13T06:12:45.920Z,66.06
2022-10-13T06:13:45.858Z,65.58
2022-10-13T06:14:45.845Z,65.74
2022-10-13T06:15:45.821Z,65.26
2022-10-13T06:16:45.812Z,65.90
2022-10-13T06:17:45.816Z,62.84
2022-10-13T06:18:45.797Z,63.97
2022-10-13T06:19:45.749Z,64.45
2022-10-13T06:20:45.773Z,64.61
2022-10-13T06:21:45.712Z,65.58
2022-10-13T06:22:45.764Z,66.55
2022-10-13T06:23:45.718Z,64.61
2022-10-13T06:24:45.714Z,62.68
2022-10-13T06:25:45.662Z,65.42
2022-10-13T06:26:45.646Z,64.78
2022-10-13T06:27:45.659Z,66.39
2022-10-13T06:28:50.015Z,64.78
2022-10-13T06:29:47.592Z,64.45
2022-10-13T06:30:45.575Z,65.10
2022-10-13T06:31:45.618Z,65.42
2022-10-13T06:32:45.614Z,66.39
2022-10-13T06:33:45.521Z,64.94
2022-10-13T06:34:45.526Z,65.74
2022-10-13T06:35:45.489Z,65.58
2022-10-13T06:36:45.615Z,63.65
2022-10-13T06:37:45.494Z,64.45
2022-10-13T06:38:45.449Z,65.42
2022-10-13T06:39:45.417Z,63.65
2022-10-13T06:40:45.409Z,65.42
2022-10-13T06:41:45.406Z,64.45
2022-10-13T06:42:45.407Z,63.97
2022-10-13T06:43:45.370Z,63.97
2022-10-13T06:44:45.360Z,62.68
2022-10-13T06:45:45.319Z,64.45
2022-10-13T06:46:45.301Z,63.16
2022-10-13T06:47:45.324Z,65.42
2022-10-13T06:48:45.269Z,66.06
2022-10-13T06:49:45.239Z,64.94
2022-10-13T06:50:45.232Z,65.42
2022-10-13T06:51:45.210Z,65.10
2022-10-13T06:52:45.225Z,64.13
2022-10-13T06:53:45.175Z,66.06
2022-10-13T06:54:45.163Z,64.61
2022-10-13T06:55:48.060Z,65.10
2022-10-13T06:56:46.133Z,63.65
2022-10-13T06:57:45.127Z,64.78
2022-10-13T06:58:45.077Z,62.36
2022-10-13T06:59:45.056Z,63.16
2022-10-13T07:00:45.141Z,63.00
2022-10-13T07:01:45.114Z,64.45
2022-10-13T07:02:45.053Z,63.97
2022-10-13T07:03:45.001Z,64.29
2022-10-13T07:04:44.973Z,65.42
2022-10-13T07:05:44.994Z,66.71
2022-10-13T07:06:44.971Z,63.65
2022-10-13T07:07:44.948Z,64.61
2022-10-13T07:08:44.896Z,62.52
2022-10-13T07:09:44.918Z,62.52
2022-10-13T07:10:44.868Z,65.74
2022-10-13T07:11:44.863Z,63.65
2022-10-13T07:12:44.873Z,61.23
2022-10-13T07:13:46.581Z,62.36
2022-10-13T07:14:45.820Z,64.78
2022-10-13T07:15:44.781Z,66.23
2022-10-13T07:16:44.768Z,64.13
2022-10-13T07:17:45.771Z,65.10
2022-10-13T07:18:44.764Z,64.61
2022-10-13T07:19:44.707Z,65.10
2022-10-13T07:20:44.690Z,66.06
2022-10-13T07:21:44.672Z,64.29
2022-10-13T07:22:44.696Z,65.10
2022-10-13T07:23:44.686Z,64.29
2022-10-13T07:24:44.617Z,63.97
2022-10-13T07:25:44.614Z,65.90
2022-10-13T07:26:44.604Z,63.49
2022-10-13T07:27:44.613Z,64.29
2022-10-13T07:28:44.602Z,63.65
2022-10-13T07:29:44.536Z,63.00
2022-10-13T07:30:44.544Z,66.87
2022-10-13T07:31:44.539Z,65.42
2022-10-13T07:32:44.531Z,62.36
2022-10-13T07:33:44.470Z,64.45
2022-10-13T07:34:44.455Z,65.74
2022-10-13T07:35:44.425Z,62.04
2022-10-13T07:36:44.417Z,65.26
2022-10-13T07:37:44.447Z,65.10
2022-10-13T07:38:44.377Z,63.49
2022-10-13T07:39:44.379Z,64.13
2022-10-13T07:40:44.340Z,63.97
2022-10-13T07:41:47.546Z,66.71
2022-10-13T07:42:46.385Z,63.81
2022-10-13T07:43:44.306Z,63.81
2022-10-13T07:44:44.277Z,63.81
2022-10-13T07:45:44.255Z,64.94
2022-10-13T07:46:44.266Z,63.81
2022-10-13T07:47:44.265Z,66.06
2022-10-13T07:48:44.216Z,65.74
2022-10-13T07:49:44.199Z,64.45
2022-10-13T07:50:44.179Z,64.13
2022-10-13T07:51:44.162Z,64.45
2022-10-13T07:52:44.221Z,62.68
2022-10-13T07:53:44.125Z,61.55
2022-10-13T07:54:44.130Z,64.94
2022-10-13T07:55:44.087Z,64.45
2022-10-13T07:56:44.063Z,65.26
2022-10-13T07:57:44.082Z,65.58
2022-10-13T07:58:44.026Z,63.49
2022-10-13T07:59:44.033Z,65.26
2022-10-13T08:00:44.068Z,67.51
2022-10-13T08:01:44.019Z,62.36
2022-10-13T08:02:44.004Z,62.84
2022-10-13T08:03:47.133Z,65.10
2022-10-13T08:04:44.929Z,64.45
2022-10-13T08:05:43.964Z,63.81
2022-10-13T08:06:43.958Z,63.81
2022-10-13T08:07:43.882Z,65.42
2022-10-13T08:08:43.864Z,64.94
2022-10-13T08:09:43.879Z,67.03
2022-10-13T08:10:43.864Z,65.58
2022-10-13T08:11:44.830Z,63.81
2022-10-13T08:12:43.795Z,64.61
2022-10-13T08:13:43.769Z,65.10
2022-10-13T08:14:43.859Z,64.61
2022-10-13T08:15:43.733Z,63.49
2022-10-13T08:16:43.750Z,63.33
2022-10-13T08:17:43.720Z,61.55
2022-10-13T08:18:43.700Z,63.81
2022-10-13T08:19:43.660Z,64.29
2022-10-13T08:20:44.048Z,64.45
2022-10-13T08:22:00.446Z,61.71
2022-10-13T08:22:45.613Z,63.16
2022-10-13T08:23:43.619Z,62.68
2022-10-13T08:24:43.591Z,63.00
2022-10-13T08:25:43.591Z,64.45
2022-10-13T08:26:43.621Z,64.45
2022-10-13T08:27:51.060Z,64.78
2022-10-13T08:29:02.970Z,63.65
2022-10-13T08:29:45.503Z,63.65
2022-10-13T08:30:43.567Z,63.16
2022-10-13T08:31:43.716Z,62.20
2022-10-13T08:32:43.465Z,62.68
2022-10-13T08:33:43.437Z,61.71
2022-10-13T08:34:43.457Z,63.81
2022-10-13T08:35:43.410Z,63.00
2022-10-13T08:36:43.419Z,64.13
2022-10-13T08:37:43.365Z,62.68
2022-10-13T08:38:43.357Z,64.13
2022-10-13T08:39:43.386Z,61.55
2022-10-13T08:40:43.324Z,62.20
2022-10-13T08:41:43.326Z,63.81
2022-10-13T08:42:43.298Z,64.29
2022-10-13T08:44:13.475Z,64.61
2022-10-13T08:45:45.253Z,66.06
2022-10-13T08:46:43.252Z,67.19
2022-10-13T08:47:43.261Z,66.39
2022-10-13T08:48:43.186Z,65.26
2022-10-13T08:49:43.386Z,65.42
2022-10-13T08:50:43.145Z,63.81
2022-10-13T08:51:43.166Z,64.13
2022-10-13T08:52:43.153Z,63.81
2022-10-13T08:53:43.104Z,65.26
2022-10-13T08:54:43.142Z,63.16
2022-10-13T08:55:43.075Z,63.49
2022-10-13T08:56:43.055Z,65.26
2022-10-13T08:57:43.081Z,64.13
2022-10-13T08:58:43.070Z,66.23
2022-10-13T08:59:43.002Z,63.16
2022-10-13T09:00:43.000Z,61.87
2022-10-13T09:01:42.997Z,65.42
2022-10-13T09:02:42.982Z,64.61
2022-10-13T09:03:42.942Z,63.16
2022-10-13T09:04:42.897Z,63.16
2022-10-13T09:05:42.914Z,61.87
2022-10-13T09:06:42.901Z,63.81
2022-10-13T09:07:42.948Z,63.00
2022-10-13T09:08:43.027Z,63.49
2022-10-13T09:09:42.912Z,62.36
2022-10-13T09:10:42.832Z,60.42
2022-10-13T09:11:43.083Z,62.36
2022-10-13T09:12:42.791Z,63.49
2022-10-13T09:13:42.767Z,61.71
2022-10-13T09:14:42.796Z,62.04
2022-10-13T09:15:42.761Z,62.52
2022-10-13T09:16:42.732Z,62.04
2022-10-13T09:17:42.934Z,62.20
2022-10-13T09:18:42.785Z,61.23
2022-10-13T09:19:42.973Z,62.36
2022-10-13T09:20:42.695Z,61.87
2022-10-13T09:21:42.759Z,61.39
2022-10-13T09:22:42.647Z,61.55
2022-10-13T09:23:42.653Z,60.59
2022-10-13T09:24:42.692Z,60.59
2022-10-13T09:25:42.784Z,59.94
2022-10-13T09:26:43.592Z,58.01
2022-10-13T09:27:42.605Z,61.55
2022-10-13T09:28:42.629Z,58.17
2022-10-13T09:29:42.686Z,62.68
2022-10-13T09:30:42.554Z,59.78
2022-10-13T09:31:42.506Z,61.55
2022-10-13T09:32:42.479Z,63.00
2022-10-13T09:33:42.459Z,63.97
2022-10-13T09:34:42.488Z,61.23
2022-10-13T09:35:42.444Z,61.87
2022-10-13T09:36:42.601Z,60.10
2022-10-13T09:37:42.433Z,62.20
2022-10-13T09:38:42.678Z,60.26
2022-10-13T09:39:42.427Z,60.42
2022-10-13T09:41:42.636Z,62.20
2022-10-13T09:42:42.290Z,63.49
2022-10-13T09:43:42.431Z,60.59
2022-10-13T09:44:42.373Z,63.16
2022-10-13T09:45:42.290Z,63.97
2022-10-13T09:46:42.499Z,61.55
2022-10-13T09:47:42.269Z,61.87
2022-10-13T09:48:42.298Z,62.04
2022-10-13T09:49:42.328Z,62.52
2022-10-13T09:50:43.264Z,62.36
2022-10-13T09:51:42.200Z,62.84
2022-10-13T09:52:42.187Z,62.52
2022-10-13T09:53:42.149Z,61.39
2022-10-13T09:54:42.226Z,63.16
2022-10-13T09:55:42.100Z,61.55
2022-10-13T09:56:42.080Z,61.39
2022-10-13T09:57:42.105Z,61.23
2022-10-13T09:58:42.586Z,63.16
2022-10-13T09:59:42.253Z,60.91
2022-10-13T10:00:42.034Z,62.52
2022-10-13T10:01:42.034Z,61.71
2022-10-13T10:02:41.989Z,61.39
2022-10-13T10:03:42.066Z,64.61
2022-10-13T10:04:41.942Z,62.04
2022-10-13T10:05:41.972Z,61.55
2022-10-13T10:06:41.950Z,62.68
2022-10-13T10:07:41.903Z,62.04
2022-10-13T10:09:02.285Z,62.20
2022-10-13T10:09:44.044Z,61.39
2022-10-13T10:10:41.894Z,62.36
2022-10-13T10:11:41.864Z,60.91
2022-10-13T10:12:41.820Z,63.97
2022-10-13T10:13:41.848Z,62.68
2022-10-13T10:14:41.832Z,62.52
2022-10-13T10:15:41.816Z,62.84
2022-10-13T10:16:41.776Z,61.71
2022-10-13T10:17:42.841Z,61.39
2022-10-13T10:18:41.922Z,60.26
2022-10-13T10:19:41.709Z,62.20
2022-10-13T10:20:41.829Z,61.87
2022-10-13T10:21:41.689Z,64.94
2022-10-13T10:22:41.896Z,61.23
2022-10-13T10:23:41.907Z,63.49
2022-10-13T10:24:41.644Z,62.04
2022-10-13T10:25:41.646Z,63.16
2022-10-13T10:26:41.878Z,62.68
2022-10-13T10:27:43.765Z,60.75
2022-10-13T10:28:41.619Z,64.45
2022-10-13T10:29:41.677Z,64.13
2022-10-13T10:30:41.567Z,63.65
2022-10-13T10:31:41.707Z,62.52
2022-10-13T10:32:41.530Z,64.94
2022-10-13T10:33:41.551Z,63.97
2022-10-13T10:34:41.631Z,63.97
2022-10-13T10:35:42.429Z,60.42
2022-10-13T10:36:41.468Z,65.26
2022-10-13T10:37:41.481Z,66.06
2022-10-13T10:38:41.404Z,65.26
2022-10-13T10:39:41.524Z,65.42
2022-10-13T10:40:41.388Z,64.29
2022-10-13T10:41:41.377Z,64.61
2022-10-13T10:42:41.394Z,63.97
2022-10-13T10:43:41.379Z,63.00
2022-10-13T10:44:41.445Z,64.78
2022-10-13T10:45:41.523Z,64.78
2022-10-13T10:46:41.311Z,64.94
2022-10-13T10:47:41.324Z,66.23
2022-10-13T10:48:41.273Z,63.65
2022-10-13T10:49:41.407Z,63.81
2022-10-13T10:50:41.215Z,62.68
2022-10-13T10:51:41.198Z,63.49
2022-10-13T10:52:41.162Z,62.52
2022-10-13T10:53:41.236Z,62.84
2022-10-13T10:54:45.066Z,62.84
2022-10-13T10:55:42.120Z,62.20
2022-10-13T10:56:41.154Z,63.97
2022-10-13T10:57:41.120Z,64.13
2022-10-13T10:58:41.070Z,64.45
2022-10-13T10:59:41.134Z,64.13
2022-10-13T11:00:40.984Z,63.65
2022-10-13T11:01:41.128Z,62.04
2022-10-13T11:02:41.074Z,62.36
2022-10-13T11:03:41.023Z,61.39
2022-10-13T11:04:40.999Z,60.91
2022-10-13T11:05:40.945Z,62.36
2022-10-13T11:06:41.114Z,61.23
2022-10-13T11:07:40.904Z,60.91
2022-10-13T11:08:41.092Z,63.97
2022-10-13T11:09:41.080Z,62.84
2022-10-13T11:10:40.892Z,63.16
2022-10-13T11:11:40.939Z,62.04
2022-10-13T11:12:41.665Z,64.94
2022-10-13T11:13:40.855Z,65.26
2022-10-13T11:14:41.433Z,63.97
2022-10-13T11:15:40.930Z,62.04
2022-10-13T11:16:40.875Z,64.45
2022-10-13T11:17:53.954Z,64.45
2022-10-13T11:18:41.708Z,64.45
2022-10-13T11:19:40.840Z,63.16
2022-10-13T11:20:40.670Z,64.61
2022-10-13T11:21:40.671Z,63.33
2022-10-13T11:22:40.684Z,64.45
2022-10-13T11:23:40.617Z,63.16
2022-10-13T11:24:40.689Z,63.33
2022-10-13T11:25:40.621Z,64.78
2022-10-13T11:26:40.552Z,63.81
2022-10-13T11:27:40.579Z,63.81
2022-10-13T11:28:40.693Z,62.36
2022-10-13T11:29:40.614Z,63.49
2022-10-13T11:30:40.542Z,63.49
2022-10-13T11:31:40.548Z,64.61
2022-10-13T11:32:40.586Z,61.87
2022-10-13T11:33:40.451Z,63.65
2022-10-13T11:34:40.765Z,62.52
2022-10-13T11:35:41.582Z,63.97
2022-10-13T11:36:40.653Z,63.16
2022-10-13T11:37:40.410Z,63.97
2022-10-13T11:38:40.354Z,62.04
2022-10-13T11:39:40.377Z,62.20
2022-10-13T11:40:40.357Z,63.16
2022-10-13T11:41:40.336Z,63.49
2022-10-13T11:42:40.787Z,63.49
2022-10-13T11:43:40.354Z,64.78
2022-10-13T11:44:40.273Z,61.87
2022-10-13T11:45:40.271Z,63.97
2022-10-13T11:46:40.243Z,64.78
2022-10-13T11:47:40.264Z,63.49
2022-10-13T11:48:40.186Z,63.33
2022-10-13T11:49:40.233Z,64.45
2022-10-13T11:50:40.381Z,66.71
2022-10-13T11:51:40.106Z,63.00
2022-10-13T11:52:40.111Z,64.29
2022-10-13T11:53:40.160Z,60.59
2022-10-13T11:54:40.209Z,64.13
2022-10-13T11:55:40.226Z,64.78
2022-10-13T11:56:42.008Z,63.33
2022-10-13T11:57:40.052Z,63.81
2022-10-13T11:58:40.169Z,62.52
2022-10-13T11:59:40.113Z,65.26
2022-10-13T12:00:40.005Z,65.26
2022-10-13T12:01:40.980Z,62.04
2022-10-13T12:02:40.118Z,62.20
2022-10-13T12:03:39.932Z,64.45
2022-10-13T12:04:45.574Z,65.58
2022-10-13T12:05:41.018Z,64.78
2022-10-13T12:06:39.919Z,65.26
2022-10-13T12:07:40.064Z,64.29
2022-10-13T12:08:40.050Z,66.06
2022-10-13T12:09:39.856Z,65.74
2022-10-13T12:10:39.823Z,65.10
2022-10-13T12:11:39.804Z,63.97
2022-10-13T12:12:39.829Z,63.97
2022-10-13T12:13:39.851Z,63.00
2022-10-13T12:14:39.949Z,64.94
2022-10-13T12:15:41.496Z,62.20
2022-10-13T12:16:41.080Z,62.84
2022-10-13T12:17:39.853Z,65.10
2022-10-13T12:18:39.728Z,65.74
2022-10-13T12:19:39.759Z,65.10
2022-10-13T12:20:40.136Z,65.90
2022-10-13T12:21:39.719Z,63.49
2022-10-13T12:22:40.471Z,64.45
2022-10-13T12:23:39.569Z,63.49
2022-10-13T12:24:39.747Z,62.36
2022-10-13T12:25:39.739Z,64.78
2022-10-13T12:26:39.747Z,62.52
2022-10-13T12:27:39.597Z,64.13
2022-10-13T12:28:39.588Z,66.39
2022-10-13T12:29:39.505Z,64.94
2022-10-13T12:30:39.491Z,64.45
2022-10-13T12:31:39.502Z,62.68
2022-10-13T12:32:39.511Z,63.00
2022-10-13T12:33:39.662Z,65.74
2022-10-13T12:34:39.522Z,66.71
2022-10-13T12:35:39.411Z,64.45
2022-10-13T12:36:39.476Z,64.13
2022-10-13T12:37:39.359Z,63.97
2022-10-13T12:38:39.320Z,63.81
2022-10-13T12:39:39.507Z,63.00
2022-10-13T12:40:39.364Z,65.58
2022-10-13T12:41:39.342Z,62.52
2022-10-13T12:42:39.312Z,62.52
2022-10-13T12:43:39.263Z,63.97
2022-10-13T12:44:39.345Z,63.97
2022-10-13T12:45:39.346Z,63.97
2022-10-13T12:46:39.246Z,64.94
2022-10-13T12:47:39.211Z,66.87
2022-10-13T12:48:39.215Z,65.10
2022-10-13T12:49:39.207Z,66.23
2022-10-13T12:50:39.163Z,64.94
2022-10-13T12:51:39.227Z,66.23
2022-10-13T12:52:39.358Z,65.26
2022-10-13T12:53:39.186Z,66.71
2022-10-13T12:54:39.122Z,66.06